Time;durP1;ratioP1;P1;durP2;ratioP2;P2;SDS_P1;SDS_P2;PMS_P1;PMS_P2;Temp;Humidity;BMP_temperature;BMP_pressure;BME280_temperature;BME280_humidity;BME280_pressure;Samples;Min_cycle;Max_cycle;Signal;HPM_P1;HPM_P2
2023/09/03 00:00:28;;;;;;;34.20;28.98;;;14.80;99.90;;;;;;2076041;28;20542;-79
2023/09/03 00:01:30;;;;;;;32.90;29.30;;;14.80;99.90;;;;;;2092400;28;20083;-79
2023/09/03 00:02:30;;;;;;;32.47;28.77;;;14.80;99.90;;;;;;2079840;28;20037;-79
2023/09/03 00:03:31;;;;;;;35.13;28.88;;;14.80;99.90;;;;;;2084614;28;20055;-79
2023/09/03 00:04:32;;;;;;;32.97;28.77;;;14.70;99.90;;;;;;2093882;28;20040;-78
2023/09/03 00:05:33;;;;;;;33.45;28.17;;;14.70;99.90;;;;;;2092162;28;20032;-79
2023/09/03 00:06:34;;;;;;;33.45;28.70;;;14.70;99.90;;;;;;2085344;28;20025;-79
2023/09/03 00:07:34;;;;;;;33.78;28.15;;;14.80;99.90;;;;;;2088673;28;20036;-79
2023/09/03 00:08:35;;;;;;;34.20;28.73;;;14.70;99.90;;;;;;2092464;28;20107;-79
2023/09/03 00:09:36;;;;;;;31.75;28.25;;;14.70;99.90;;;;;;2079585;28;20040;-78
2023/09/03 00:10:37;;;;;;;33.10;28.55;;;14.70;99.90;;;;;;2084651;28;20025;-78
2023/09/03 00:11:38;;;;;;;32.72;28.25;;;14.80;99.90;;;;;;2096538;28;20258;-79
2023/09/03 00:12:38;;;;;;;34.58;28.50;;;14.80;99.90;;;;;;2085051;28;20401;-78
2023/09/03 00:13:39;;;;;;;30.83;27.45;;;14.70;99.90;;;;;;2088979;28;20392;-79
2023/09/03 00:14:39;;;;;;;33.72;28.50;;;14.70;99.90;;;;;;2096403;28;20495;-80
2023/09/03 00:15:40;;;;;;;32.17;27.42;;;14.70;99.90;;;;;;2096452;28;20295;-79
2023/09/03 00:16:41;;;;;;;31.23;27.50;;;14.70;99.90;;;;;;2085538;28;20025;-79
2023/09/03 00:17:43;;;;;;;34.75;28.42;;;14.70;99.90;;;;;;2092999;28;20024;-79
2023/09/03 00:18:44;;;;;;;31.25;26.75;;;14.70;99.90;;;;;;2085406;28;20483;-72
2023/09/03 00:19:44;;;;;;;32.05;28.13;;;14.70;99.90;;;;;;2087253;28;20029;-73
2023/09/03 00:21:17;;;;;;;32.58;27.75;;;14.70;99.90;;;;;;2091693;28;20025;-72
2023/09/03 00:22:18;;;;;;;33.47;27.25;;;14.80;99.90;;;;;;2076598;28;20034;-74
2023/09/03 00:23:18;;;;;;;33.08;27.88;;;14.80;99.90;;;;;;2081276;28;20029;-75
2023/09/03 00:24:19;;;;;;;32.92;27.77;;;14.80;99.90;;;;;;2083977;28;20024;-73
2023/09/03 00:25:21;;;;;;;31.30;27.08;;;14.80;99.90;;;;;;2087691;28;20071;-73
2023/09/03 00:26:24;;;;;;;30.52;26.38;;;14.90;99.90;;;;;;2088535;28;20412;-73
2023/09/03 00:27:30;;;;;;;30.45;26.83;;;14.90;99.90;;;;;;2084148;28;20516;-73
2023/09/03 00:28:31;;;;;;;29.75;26.55;;;14.90;99.90;;;;;;2084399;28;20031;-73
2023/09/03 00:29:32;;;;;;;29.98;26.23;;;15.00;99.90;;;;;;2083469;28;20032;-73
2023/09/03 00:30:33;;;;;;;33.83;26.90;;;15.00;99.90;;;;;;2087217;28;20078;-73
2023/09/03 00:31:33;;;;;;;30.33;26.50;;;15.00;99.90;;;;;;2088824;28;20020;-73
2023/09/03 00:32:34;;;;;;;30.55;27.00;;;15.10;99.90;;;;;;2091293;28;20033;-73
2023/09/03 00:33:35;;;;;;;29.83;26.55;;;15.10;99.90;;;;;;2090861;28;20028;-72
2023/09/03 00:34:35;;;;;;;29.38;25.98;;;15.00;99.90;;;;;;2086972;28;20024;-72
2023/09/03 00:35:38;;;;;;;31.92;26.55;;;15.10;99.90;;;;;;2078783;28;20399;-72
2023/09/03 00:36:40;;;;;;;30.13;26.27;;;15.10;99.90;;;;;;2075871;28;20021;-74
2023/09/03 00:37:40;;;;;;;29.48;26.27;;;15.20;99.90;;;;;;2083202;28;20021;-74
2023/09/03 00:38:41;;;;;;;29.80;25.20;;;15.20;99.90;;;;;;2090517;28;20155;-74
2023/09/03 00:39:41;;;;;;;30.50;26.00;;;15.20;99.90;;;;;;2083817;28;20032;-74
2023/09/03 00:40:42;;;;;;;27.85;24.85;;;15.20;99.90;;;;;;2085710;28;20151;-72
2023/09/03 00:41:42;;;;;;;30.02;25.80;;;15.30;99.90;;;;;;2087625;28;20409;-75
2023/09/03 00:42:43;;;;;;;29.90;25.90;;;15.30;99.90;;;;;;2089795;28;20238;-73
2023/09/03 00:43:44;;;;;;;30.52;25.25;;;15.30;99.90;;;;;;2084035;28;20025;-73
2023/09/03 00:44:44;;;;;;;27.63;24.63;;;15.30;99.90;;;;;;2076240;28;20021;-73
2023/09/03 00:45:46;;;;;;;30.35;25.35;;;15.30;99.90;;;;;;2087272;28;20013;-73
2023/09/03 00:46:47;;;;;;;29.17;25.23;;;15.30;99.90;;;;;;2089943;28;20036;-73
2023/09/03 00:47:48;;;;;;;27.52;24.58;;;15.40;99.90;;;;;;2092051;28;20031;-73
2023/09/03 00:48:49;;;;;;;28.52;24.40;;;15.40;99.90;;;;;;2088289;28;21482;-73
2023/09/03 00:49:50;;;;;;;29.80;23.52;;;15.40;99.90;;;;;;2089054;28;20484;-73
2023/09/03 00:50:52;;;;;;;25.42;22.73;;;15.40;99.90;;;;;;2088435;28;20013;-73
2023/09/03 00:51:54;;;;;;;25.40;22.75;;;15.40;99.90;;;;;;2093614;28;20031;-73
2023/09/03 00:52:55;;;;;;;28.52;23.75;;;15.40;99.90;;;;;;2079143;28;20064;-73
2023/09/03 00:53:56;;;;;;;25.52;21.77;;;15.40;99.90;;;;;;2086637;28;20036;-73
2023/09/03 00:54:57;;;;;;;23.48;20.98;;;15.40;99.90;;;;;;2094419;28;20518;-73
2023/09/03 00:55:58;;;;;;;24.98;22.25;;;15.40;99.90;;;;;;2086057;28;20028;-73
2023/09/03 00:56:59;;;;;;;24.33;21.50;;;15.40;99.90;;;;;;2081721;28;20014;-73
2023/09/03 00:58:00;;;;;;;25.63;22.42;;;15.40;99.90;;;;;;2083986;28;20055;-73
2023/09/03 00:59:01;;;;;;;30.00;23.52;;;15.40;99.90;;;;;;2086208;28;20025;-73
2023/09/03 01:00:02;;;;;;;28.95;24.40;;;15.40;99.90;;;;;;2092585;28;20036;-74
2023/09/03 01:01:04;;;;;;;26.95;23.65;;;15.40;99.90;;;;;;2087413;28;20060;-73
2023/09/03 01:02:05;;;;;;;29.60;24.80;;;15.30;99.90;;;;;;2086620;28;20033;-74
2023/09/03 01:03:06;;;;;;;29.85;24.70;;;15.30;99.90;;;;;;2076861;28;20025;-76
2023/09/03 01:04:06;;;;;;;28.15;23.65;;;15.30;99.90;;;;;;2091200;28;20081;-74
2023/09/03 01:05:07;;;;;;;27.50;23.73;;;15.30;99.90;;;;;;2094150;28;20017;-73
2023/09/03 01:06:08;;;;;;;25.70;22.67;;;15.30;99.90;;;;;;2091321;28;20114;-73
2023/09/03 01:07:10;;;;;;;27.98;23.70;;;15.30;99.90;;;;;;2087240;28;20032;-73
2023/09/03 01:08:12;;;;;;;26.55;21.98;;;15.30;99.90;;;;;;2078885;28;20030;-74
2023/09/03 01:09:13;;;;;;;24.58;21.92;;;15.30;99.90;;;;;;2079008;28;20638;-73
2023/09/03 01:10:14;;;;;;;23.38;20.83;;;15.30;99.90;;;;;;2073725;28;20028;-74
2023/09/03 01:11:26;;;;;;;24.20;21.45;;;15.30;99.90;;;;;;2083390;28;20013;-73
2023/09/03 01:12:46;;;;;;;28.92;20.90;;;15.30;99.90;;;;;;2093164;28;20032;-73
2023/09/03 01:13:57;;;;;;;22.38;19.75;;;15.20;99.90;;;;;;2088062;28;20032;-73
2023/09/03 01:15:04;;;;;;;25.08;20.50;;;15.30;99.90;;;;;;2086060;28;20036;-74
2023/09/03 01:16:10;;;;;;;23.42;20.40;;;15.20;99.90;;;;;;2091654;28;20337;-73
2023/09/03 01:17:24;;;;;;;21.40;18.77;;;15.30;99.90;;;;;;2083845;28;20036;-74
2023/09/03 01:18:28;;;;;;;22.63;19.40;;;15.30;99.90;;;;;;2092582;28;20407;-73
2023/09/03 01:20:03;;;;;;;20.40;18.27;;;15.30;99.90;;;;;;2091492;28;21006;-73
2023/09/03 01:21:22;;;;;;;20.45;17.58;;;15.30;99.90;;;;;;2092332;28;20037;-74
2023/09/03 01:22:48;;;;;;;25.05;19.15;;;15.30;99.90;;;;;;2089038;28;20037;-73
2023/09/03 01:24:10;;;;;;;21.10;18.80;;;15.30;99.90;;;;;;2086263;28;20029;-74
2023/09/03 01:25:30;;;;;;;22.70;19.38;;;15.30;99.90;;;;;;2084247;28;20021;-73
2023/09/03 01:26:56;;;;;;;24.58;20.75;;;15.30;99.90;;;;;;2085646;28;20045;-74
2023/09/03 01:28:20;;;;;;;26.60;22.27;;;15.20;99.90;;;;;;2082917;28;20451;-74
2023/09/03 01:29:21;;;;;;;25.42;22.52;;;15.20;99.90;;;;;;2084643;28;20104;-72
2023/09/03 01:30:22;;;;;;;28.08;21.88;;;15.30;99.90;;;;;;2093742;28;20099;-74
2023/09/03 01:31:23;;;;;;;26.05;22.50;;;15.20;99.90;;;;;;2078414;28;20365;-73
2023/09/03 01:32:24;;;;;;;26.80;22.05;;;15.20;99.90;;;;;;2083209;28;20058;-73
2023/09/03 01:33:29;;;;;;;23.98;21.38;;;15.20;99.90;;;;;;2084766;28;20530;-73
2023/09/03 01:34:30;;;;;;;25.30;21.70;;;15.20;99.90;;;;;;2095856;28;20665;-73
2023/09/03 01:35:32;;;;;;;25.15;21.55;;;15.20;99.90;;;;;;2091346;28;20025;-73
2023/09/03 01:36:34;;;;;;;25.15;22.15;;;15.20;99.90;;;;;;2082506;28;20037;-73
2023/09/03 01:37:35;;;;;;;23.90;21.20;;;15.20;99.90;;;;;;2081841;28;20288;-73
2023/09/03 01:38:38;;;;;;;24.60;21.77;;;15.20;99.90;;;;;;2093590;28;20028;-73
2023/09/03 01:39:39;;;;;;;26.25;21.65;;;15.20;99.90;;;;;;2083003;28;20552;-74
2023/09/03 01:40:40;;;;;;;23.85;21.17;;;15.20;99.90;;;;;;2078500;28;20041;-73
2023/09/03 01:41:41;;;;;;;25.83;20.85;;;15.20;99.90;;;;;;2086635;28;20213;-73
2023/09/03 01:42:42;;;;;;;25.42;21.70;;;15.20;99.90;;;;;;2094808;28;20031;-74
2023/09/03 01:43:44;;;;;;;24.35;21.55;;;15.20;99.90;;;;;;2083851;28;20107;-73
2023/09/03 01:44:44;;;;;;;24.25;21.63;;;15.20;99.90;;;;;;2089757;28;20032;-74
2023/09/03 01:46:09;;;;;;;23.25;20.83;;;15.20;99.90;;;;;;2094621;28;20055;-74
2023/09/03 01:47:30;;;;;;;25.35;22.20;;;15.20;99.90;;;;;;2090791;28;20517;-74
2023/09/03 01:48:43;;;;;;;24.23;21.08;;;15.10;99.90;;;;;;2092801;28;20426;-74
2023/09/03 01:49:53;;;;;;;24.50;20.63;;;15.20;99.90;;;;;;2075644;28;20053;-74
2023/09/03 01:51:10;;;;;;;23.63;20.20;;;15.10;99.90;;;;;;2080474;28;20026;-74
2023/09/03 01:52:26;;;;;;;23.27;20.30;;;15.10;99.90;;;;;;2087091;28;20396;-73
2023/09/03 01:53:34;;;;;;;23.85;21.20;;;15.10;99.90;;;;;;2083179;28;20109;-73
2023/09/03 01:54:40;;;;;;;23.50;19.92;;;15.10;99.90;;;;;;2082223;28;20030;-75
2023/09/03 01:55:44;;;;;;;26.17;19.77;;;15.20;99.90;;;;;;2073997;28;20451;-75
2023/09/03 01:57:00;;;;;;;24.23;20.77;;;15.10;99.90;;;;;;2070756;28;20014;-75
2023/09/03 01:58:05;;;;;;;22.65;20.25;;;15.20;99.90;;;;;;2083108;28;20033;-75
2023/09/03 01:59:18;;;;;;;23.85;20.75;;;15.10;99.90;;;;;;2074599;28;20068;-73
2023/09/03 02:00:20;;;;;;;24.33;20.20;;;15.10;99.90;;;;;;2082024;28;20299;-73
2023/09/03 02:01:30;;;;;;;23.23;20.75;;;15.10;99.90;;;;;;2090853;28;20039;-73
2023/09/03 02:02:32;;;;;;;23.88;21.35;;;15.10;99.90;;;;;;2088465;28;20126;-73
2023/09/03 02:03:33;;;;;;;24.05;20.35;;;15.10;99.90;;;;;;2088412;28;20032;-73
2023/09/03 02:04:34;;;;;;;23.42;19.77;;;15.10;99.90;;;;;;2088405;28;20112;-73
2023/09/03 02:05:34;;;;;;;25.38;19.67;;;15.10;99.90;;;;;;2090735;28;20511;-73
2023/09/03 02:06:35;;;;;;;23.55;20.08;;;15.10;99.90;;;;;;2081044;28;20075;-73
2023/09/03 02:07:36;;;;;;;21.10;18.85;;;15.10;99.90;;;;;;2080729;28;20518;-73
2023/09/03 02:08:36;;;;;;;23.05;19.40;;;15.10;99.90;;;;;;2084018;28;20027;-73
2023/09/03 02:09:37;;;;;;;24.23;19.85;;;15.10;99.90;;;;;;2079496;28;20013;-73
2023/09/03 02:10:37;;;;;;;21.60;19.27;;;15.10;99.90;;;;;;2090907;28;20484;-73
2023/09/03 02:11:38;;;;;;;23.40;19.85;;;15.20;99.90;;;;;;2081931;28;20033;-73
2023/09/03 02:12:39;;;;;;;21.05;18.73;;;15.20;99.90;;;;;;2083400;28;20492;-73
2023/09/03 02:13:40;;;;;;;21.40;19.17;;;15.20;99.90;;;;;;2090863;28;20109;-73
2023/09/03 02:14:41;;;;;;;21.40;18.58;;;15.20;99.90;;;;;;2082087;28;20032;-74
2023/09/03 02:15:41;;;;;;;20.48;18.38;;;15.10;99.90;;;;;;2078481;28;20025;-73
2023/09/03 02:16:42;;;;;;;20.58;17.65;;;15.20;99.90;;;;;;2086605;28;20021;-73
2023/09/03 02:17:43;;;;;;;20.27;17.55;;;15.20;99.90;;;;;;2082543;28;20028;-73
2023/09/03 02:18:44;;;;;;;22.85;19.13;;;15.20;99.90;;;;;;2082984;28;20126;-73
2023/09/03 02:19:44;;;;;;;19.92;17.85;;;15.10;99.90;;;;;;2090975;28;20071;-73
2023/09/03 02:20:45;;;;;;;20.48;17.40;;;15.20;99.90;;;;;;2089702;28;20143;-73
2023/09/03 02:21:45;;;;;;;19.95;17.73;;;15.10;99.90;;;;;;2074749;28;20034;-73
2023/09/03 02:22:46;;;;;;;21.45;18.63;;;15.10;99.90;;;;;;2089620;28;20021;-73
2023/09/03 02:23:46;;;;;;;20.25;18.05;;;15.20;99.90;;;;;;2091416;28;20113;-73
2023/09/03 02:24:47;;;;;;;20.48;17.50;;;15.10;99.90;;;;;;2084702;28;20043;-73
2023/09/03 02:25:57;;;;;;;19.85;17.77;;;15.10;99.90;;;;;;2089740;28;20033;-73
2023/09/03 02:26:58;;;;;;;19.90;17.77;;;15.10;99.90;;;;;;2085620;28;20089;-73
2023/09/03 02:28:00;;;;;;;22.40;17.55;;;15.10;99.90;;;;;;2085062;28;20134;-73
2023/09/03 02:29:00;;;;;;;19.48;17.48;;;15.10;99.90;;;;;;2074457;28;20537;-73
2023/09/03 02:30:01;;;;;;;19.92;17.83;;;15.10;99.90;;;;;;2075126;28;20312;-73
2023/09/03 02:31:02;;;;;;;20.48;17.98;;;15.10;99.90;;;;;;2075487;28;20594;-73
2023/09/03 02:32:03;;;;;;;19.38;17.27;;;15.00;99.90;;;;;;2080387;28;20040;-73
2023/09/03 02:33:04;;;;;;;20.63;17.38;;;15.00;99.90;;;;;;2082325;28;20039;-73
2023/09/03 02:34:06;;;;;;;19.80;17.15;;;15.00;99.90;;;;;;2084190;28;20483;-73
2023/09/03 02:35:07;;;;;;;22.50;17.30;;;15.00;99.90;;;;;;2092425;28;20025;-73
2023/09/03 02:36:07;;;;;;;18.42;16.42;;;15.00;99.90;;;;;;2089746;28;20604;-73
2023/09/03 02:37:08;;;;;;;18.60;16.48;;;15.00;99.90;;;;;;2081510;28;20143;-73
2023/09/03 02:38:08;;;;;;;19.30;16.75;;;15.00;99.90;;;;;;2083645;28;20058;-73
2023/09/03 02:39:09;;;;;;;18.15;15.73;;;15.00;99.90;;;;;;2090482;28;20446;-72
2023/09/03 02:40:09;;;;;;;19.60;17.00;;;15.00;99.90;;;;;;2089967;28;20471;-73
2023/09/03 02:41:10;;;;;;;17.50;15.65;;;15.00;99.90;;;;;;2084757;28;20124;-73
2023/09/03 02:42:11;;;;;;;18.58;16.15;;;15.00;99.90;;;;;;2082546;28;20032;-73
2023/09/03 02:43:12;;;;;;;18.45;15.95;;;15.00;99.90;;;;;;2086184;28;20710;-73
2023/09/03 02:44:13;;;;;;;17.65;15.50;;;15.00;99.90;;;;;;2082453;28;20772;-73
2023/09/03 02:45:13;;;;;;;16.65;14.93;;;15.00;99.90;;;;;;2082902;28;20025;-72
2023/09/03 02:46:14;;;;;;;17.50;15.45;;;15.00;99.90;;;;;;2082313;28;20423;-72
2023/09/03 02:47:14;;;;;;;16.80;14.95;;;15.00;99.90;;;;;;2083036;28;20025;-73
2023/09/03 02:48:15;;;;;;;17.10;14.93;;;15.00;99.90;;;;;;2090111;28;20255;-73
2023/09/03 02:49:16;;;;;;;17.27;14.35;;;15.00;99.90;;;;;;2082275;28;20031;-74
2023/09/03 02:50:18;;;;;;;16.38;14.63;;;15.00;99.90;;;;;;2083879;28;20037;-73
2023/09/03 02:51:18;;;;;;;17.52;15.20;;;15.00;99.90;;;;;;2089383;28;20075;-73
2023/09/03 02:52:20;;;;;;;16.08;14.45;;;15.00;99.90;;;;;;2090758;28;20059;-72
2023/09/03 02:53:20;;;;;;;16.67;14.88;;;15.10;99.90;;;;;;2084569;28;20035;-74
2023/09/03 02:54:21;;;;;;;16.88;15.02;;;15.10;99.90;;;;;;2088492;28;20025;-75
2023/09/03 02:55:22;;;;;;;16.88;15.07;;;15.10;99.90;;;;;;2091502;28;20028;-75
2023/09/03 02:56:23;;;;;;;17.65;15.40;;;15.10;99.90;;;;;;2085553;28;20071;-75
2023/09/03 02:57:23;;;;;;;17.15;15.35;;;15.10;99.90;;;;;;2093418;28;20024;-75
2023/09/03 02:58:25;;;;;;;16.52;14.55;;;15.00;99.90;;;;;;2086455;28;20037;-75
2023/09/03 02:59:25;;;;;;;15.85;14.23;;;15.10;99.90;;;;;;2079978;28;20036;-75
2023/09/03 03:00:27;;;;;;;17.92;14.75;;;15.10;99.90;;;;;;2078955;28;20033;-75
2023/09/03 03:01:28;;;;;;;15.75;14.13;;;15.10;99.90;;;;;;2090864;28;20118;-74
2023/09/03 03:02:29;;;;;;;16.17;14.15;;;15.10;99.90;;;;;;2087378;28;20503;-75
2023/09/03 03:03:30;;;;;;;16.00;13.68;;;15.10;99.90;;;;;;2088296;28;20052;-75
2023/09/03 03:04:30;;;;;;;14.60;13.10;;;15.10;99.90;;;;;;2083541;28;20032;-75
2023/09/03 03:05:31;;;;;;;14.52;13.05;;;15.20;99.90;;;;;;2078643;28;20078;-75
2023/09/03 03:06:31;;;;;;;15.82;13.80;;;15.10;99.90;;;;;;2081878;28;20032;-75
2023/09/03 03:07:32;;;;;;;15.00;13.50;;;15.20;99.90;;;;;;2090757;28;20021;-75
2023/09/03 03:08:33;;;;;;;14.00;12.50;;;15.20;99.90;;;;;;2088161;28;20079;-74
2023/09/03 03:09:33;;;;;;;13.40;11.82;;;15.20;99.90;;;;;;2085521;28;20217;-74
2023/09/03 03:10:34;;;;;;;14.18;12.68;;;15.20;99.90;;;;;;2085239;28;20041;-75
2023/09/03 03:11:35;;;;;;;14.85;12.43;;;15.20;99.90;;;;;;2090636;28;20318;-74
2023/09/03 03:12:36;;;;;;;14.30;12.70;;;15.20;99.90;;;;;;2089060;28;20123;-73
2023/09/03 03:13:41;;;;;;;13.70;12.30;;;15.20;99.90;;;;;;2087765;28;20048;-73
2023/09/03 03:14:43;;;;;;;17.63;13.85;;;15.20;99.90;;;;;;2086735;28;20657;-73
2023/09/03 03:15:46;;;;;;;14.00;12.50;;;15.20;99.90;;;;;;2078301;28;20083;-73
2023/09/03 03:16:46;;;;;;;13.52;12.10;;;15.20;99.90;;;;;;2090916;28;20028;-73
2023/09/03 03:17:49;;;;;;;14.07;12.55;;;15.20;99.90;;;;;;2085993;28;20135;-73
2023/09/03 03:18:52;;;;;;;16.52;12.50;;;15.20;99.90;;;;;;2086355;28;20216;-74
2023/09/03 03:19:55;;;;;;;13.65;12.30;;;15.20;99.90;;;;;;2080238;28;20034;-73
2023/09/03 03:21:05;;;;;;;15.18;12.65;;;15.10;99.90;;;;;;2079274;28;20029;-73
2023/09/03 03:22:05;;;;;;;15.48;13.70;;;15.10;99.90;;;;;;2083584;28;20063;-73
2023/09/03 03:23:06;;;;;;;17.02;13.60;;;15.10;99.90;;;;;;2085448;28;20028;-73
2023/09/03 03:24:08;;;;;;;14.13;12.63;;;15.10;99.90;;;;;;2087569;28;20484;-75
2023/09/03 03:25:10;;;;;;;13.90;12.45;;;15.10;99.90;;;;;;2089975;28;20101;-72
2023/09/03 03:26:11;;;;;;;15.65;13.35;;;15.00;99.90;;;;;;2094143;28;20172;-73
2023/09/03 03:27:13;;;;;;;14.43;12.93;;;15.10;99.90;;;;;;2083762;28;20252;-73
2023/09/03 03:28:13;;;;;;;14.20;12.43;;;15.00;99.90;;;;;;2094081;28;20025;-73
2023/09/03 03:29:14;;;;;;;14.07;12.57;;;15.00;99.90;;;;;;2086997;28;20111;-73
2023/09/03 03:30:20;;;;;;;14.55;13.05;;;15.10;99.90;;;;;;2088607;28;20206;-72
2023/09/03 03:31:21;;;;;;;15.60;13.60;;;15.10;99.90;;;;;;2090621;28;20059;-72
2023/09/03 03:32:25;;;;;;;14.90;13.10;;;15.10;99.90;;;;;;2079935;28;20034;-73
2023/09/03 03:33:30;;;;;;;14.40;12.90;;;15.10;99.90;;;;;;2084621;28;20431;-73
2023/09/03 03:34:30;;;;;;;15.93;13.13;;;15.10;99.90;;;;;;2080032;28;20024;-73
2023/09/03 03:35:35;;;;;;;14.93;12.35;;;15.10;99.90;;;;;;2084256;28;20025;-73
2023/09/03 03:36:36;;;;;;;13.90;12.50;;;15.10;99.90;;;;;;2095933;28;20093;-73
2023/09/03 03:37:37;;;;;;;14.88;12.75;;;15.10;99.90;;;;;;2086266;28;20588;-73
2023/09/03 03:38:38;;;;;;;15.68;12.85;;;15.10;99.90;;;;;;2093233;28;20318;-73
2023/09/03 03:39:38;;;;;;;14.88;13.27;;;15.10;99.90;;;;;;2093714;28;20511;-73
2023/09/03 03:40:39;;;;;;;14.10;12.60;;;15.10;99.90;;;;;;2093398;28;20173;-73
2023/09/03 03:41:41;;;;;;;14.27;12.77;;;15.10;99.90;;;;;;2084507;28;20391;-73
2023/09/03 03:42:47;;;;;;;13.40;12.00;;;15.10;99.90;;;;;;2083742;28;20025;-73
2023/09/03 03:43:49;;;;;;;14.02;12.40;;;15.10;99.90;;;;;;2087811;28;20028;-73
2023/09/03 03:44:51;;;;;;;13.55;12.05;;;15.10;99.90;;;;;;2084454;28;20090;-73
2023/09/03 03:45:52;;;;;;;13.55;12.05;;;15.10;99.90;;;;;;2081869;28;20333;-73
2023/09/03 03:46:53;;;;;;;14.35;12.85;;;15.10;99.90;;;;;;2091926;28;20031;-73
2023/09/03 03:47:53;;;;;;;15.13;12.93;;;15.10;99.90;;;;;;2085645;28;20033;-73
2023/09/03 03:48:54;;;;;;;14.32;12.93;;;15.10;99.90;;;;;;2092012;28;20031;-73
2023/09/03 03:49:55;;;;;;;13.48;12.07;;;15.10;99.90;;;;;;2087900;28;20036;-73
2023/09/03 03:50:56;;;;;;;13.23;11.85;;;15.00;99.90;;;;;;2085003;28;20110;-73
2023/09/03 03:51:57;;;;;;;13.82;12.40;;;15.00;99.90;;;;;;2089096;28;20032;-73
2023/09/03 03:52:57;;;;;;;16.15;12.00;;;15.00;99.90;;;;;;2092041;28;20457;-73
2023/09/03 03:54:02;;;;;;;13.35;12.05;;;15.00;99.90;;;;;;2078967;28;20026;-73
2023/09/03 03:55:03;;;;;;;13.35;12.05;;;15.00;99.90;;;;;;2079569;28;20037;-74
2023/09/03 03:56:07;;;;;;;13.70;12.25;;;15.00;99.90;;;;;;2077516;28;20029;-74
2023/09/03 03:57:08;;;;;;;13.65;12.25;;;15.00;99.90;;;;;;2077400;28;20041;-75
2023/09/03 03:58:09;;;;;;;13.85;12.25;;;15.00;99.90;;;;;;2084370;28;20028;-74
2023/09/03 03:59:10;;;;;;;13.23;11.93;;;15.00;99.90;;;;;;2083505;28;20025;-75
2023/09/03 04:00:11;;;;;;;14.02;12.52;;;15.00;99.90;;;;;;2084011;28;20032;-74
2023/09/03 04:01:18;;;;;;;14.02;11.80;;;15.00;99.90;;;;;;2088617;28;20028;-75
2023/09/03 04:02:18;;;;;;;12.65;11.35;;;15.00;99.90;;;;;;2084585;28;20025;-75
2023/09/03 04:03:19;;;;;;;13.35;12.05;;;15.00;99.90;;;;;;2092732;28;20077;-75
2023/09/03 04:04:21;;;;;;;13.07;11.77;;;15.00;99.90;;;;;;2088954;28;20419;-74
2023/09/03 04:05:22;;;;;;;12.77;11.48;;;15.00;99.90;;;;;;2087258;28;20032;-75
2023/09/03 04:06:23;;;;;;;13.52;12.15;;;15.00;99.90;;;;;;2087832;28;20550;-74
2023/09/03 04:07:24;;;;;;;14.52;12.02;;;14.90;99.90;;;;;;2086048;28;20036;-75
2023/09/03 04:08:26;;;;;;;14.80;13.05;;;14.90;99.90;;;;;;2089526;28;20553;-75
2023/09/03 04:09:27;;;;;;;13.57;12.27;;;14.90;99.90;;;;;;2079875;28;20031;-75
2023/09/03 04:10:28;;;;;;;13.38;12.07;;;14.90;99.90;;;;;;2089283;28;20035;-75
2023/09/03 04:11:28;;;;;;;15.88;12.32;;;14.90;99.90;;;;;;2089462;28;20259;-74
2023/09/03 04:12:29;;;;;;;12.73;11.50;;;14.90;99.90;;;;;;2082902;28;20075;-75
2023/09/03 04:13:30;;;;;;;13.40;11.38;;;14.90;99.90;;;;;;2087004;28;20045;-75
2023/09/03 04:14:31;;;;;;;13.18;11.77;;;14.90;99.90;;;;;;2080651;28;20555;-75
2023/09/03 04:15:31;;;;;;;13.18;11.68;;;15.00;99.90;;;;;;2079626;28;20033;-75
2023/09/03 04:16:32;;;;;;;13.23;11.32;;;15.00;99.90;;;;;;2089929;28;20017;-75
2023/09/03 04:17:33;;;;;;;13.55;11.00;;;15.00;99.90;;;;;;2091604;28;20148;-75
2023/09/03 04:18:34;;;;;;;15.18;11.27;;;15.00;99.90;;;;;;2081565;28;20033;-76
2023/09/03 04:19:34;;;;;;;13.40;11.98;;;15.00;99.90;;;;;;2094411;28;20057;-76
2023/09/03 04:20:35;;;;;;;13.43;12.02;;;15.10;99.90;;;;;;2090616;28;20081;-76
2023/09/03 04:21:36;;;;;;;12.77;11.48;;;15.10;99.90;;;;;;2089112;28;20250;-76
2023/09/03 04:22:38;;;;;;;13.38;11.98;;;15.10;99.90;;;;;;2091651;28;20064;-76
2023/09/03 04:23:39;;;;;;;12.93;11.45;;;15.10;99.90;;;;;;2089871;28;20564;-75
2023/09/03 04:24:40;;;;;;;13.15;11.60;;;15.10;99.90;;;;;;2090634;28;20111;-75
2023/09/03 04:25:40;;;;;;;12.98;11.57;;;15.10;99.90;;;;;;2087021;28;20393;-76
2023/09/03 04:26:42;;;;;;;13.98;11.52;;;15.10;99.90;;;;;;2081258;28;20059;-74
2023/09/03 04:27:42;;;;;;;12.85;11.55;;;15.10;99.90;;;;;;2084057;28;20083;-74
2023/09/03 04:28:43;;;;;;;13.10;11.32;;;15.20;99.90;;;;;;2087548;28;20056;-76
2023/09/03 04:29:44;;;;;;;12.82;11.25;;;15.20;99.90;;;;;;2090595;28;20115;-76
2023/09/03 04:30:45;;;;;;;12.43;11.23;;;15.20;99.90;;;;;;2083984;28;20119;-76
2023/09/03 04:31:46;;;;;;;11.57;10.40;;;15.20;99.90;;;;;;2083358;28;20094;-76
2023/09/03 04:32:47;;;;;;;12.90;11.45;;;15.20;99.90;;;;;;2083460;28;20051;-76
2023/09/03 04:33:48;;;;;;;11.65;10.52;;;15.20;99.90;;;;;;2085834;28;20051;-75
2023/09/03 04:34:50;;;;;;;12.50;11.20;;;15.20;99.90;;;;;;2088830;28;20017;-76
2023/09/03 04:35:56;;;;;;;12.27;11.07;;;15.20;99.90;;;;;;2092513;28;20032;-74
2023/09/03 04:36:57;;;;;;;12.38;11.18;;;15.20;99.90;;;;;;2091367;28;20028;-75
2023/09/03 04:37:58;;;;;;;12.57;11.32;;;15.20;99.90;;;;;;2085924;28;20126;-74
2023/09/03 04:38:58;;;;;;;13.30;11.85;;;15.20;99.90;;;;;;2090222;28;20389;-75
2023/09/03 04:39:59;;;;;;;12.40;11.10;;;15.20;99.90;;;;;;2094046;28;20421;-75
2023/09/03 04:41:04;;;;;;;11.70;10.50;;;15.20;99.90;;;;;;2078386;28;20053;-75
2023/09/03 04:42:07;;;;;;;13.30;11.32;;;15.20;99.90;;;;;;2085932;28;20040;-74
2023/09/03 04:43:08;;;;;;;12.45;11.20;;;15.20;99.90;;;;;;2087579;28;20467;-75
2023/09/03 04:44:10;;;;;;;12.32;11.13;;;15.20;99.90;;;;;;2082046;28;20051;-75
2023/09/03 04:45:20;;;;;;;12.48;11.27;;;15.20;99.90;;;;;;2083476;28;20024;-76
2023/09/03 04:46:20;;;;;;;12.02;10.65;;;15.20;99.90;;;;;;2090857;28;20420;-75
2023/09/03 04:47:21;;;;;;;11.85;10.65;;;15.20;99.90;;;;;;2091865;28;20032;-75
2023/09/03 04:48:22;;;;;;;12.20;11.00;;;15.20;99.90;;;;;;2083504;28;20033;-74
2023/09/03 04:49:23;;;;;;;11.98;10.82;;;15.20;99.90;;;;;;2083399;28;20055;-74
2023/09/03 04:50:25;;;;;;;11.75;10.55;;;15.20;99.90;;;;;;2095512;28;20016;-75
2023/09/03 04:51:25;;;;;;;12.05;10.73;;;15.20;99.90;;;;;;2092461;28;20032;-75
2023/09/03 04:52:26;;;;;;;12.82;11.32;;;15.20;99.90;;;;;;2089569;28;20029;-75
2023/09/03 04:53:27;;;;;;;12.40;11.20;;;15.20;99.90;;;;;;2083051;28;20025;-74
2023/09/03 04:54:27;;;;;;;12.63;11.32;;;15.20;99.90;;;;;;2077360;28;20611;-75
2023/09/03 04:55:31;;;;;;;12.05;10.85;;;15.20;99.90;;;;;;2084745;28;20500;-69
2023/09/03 04:56:32;;;;;;;12.50;11.30;;;15.20;99.90;;;;;;2093646;28;20350;-74
2023/09/03 04:57:33;;;;;;;12.93;11.70;;;15.30;99.90;;;;;;2090029;28;20021;-69
2023/09/03 04:58:33;;;;;;;12.80;11.50;;;15.30;99.90;;;;;;2096349;28;20024;-68
2023/09/03 04:59:34;;;;;;;13.10;11.70;;;15.30;99.90;;;;;;2086979;28;20031;-69
2023/09/03 05:00:36;;;;;;;14.02;12.50;;;15.30;99.90;;;;;;2083080;28;20113;-69
2023/09/03 05:01:41;;;;;;;13.30;11.98;;;15.30;99.90;;;;;;2088777;28;20181;-69
2023/09/03 05:02:42;;;;;;;12.48;11.13;;;15.30;99.90;;;;;;2077284;28;20029;-70
2023/09/03 05:03:44;;;;;;;13.30;11.85;;;15.30;99.90;;;;;;2075414;28;20039;-69
2023/09/03 05:04:46;;;;;;;13.43;12.02;;;15.30;99.90;;;;;;2087044;28;20028;-69
2023/09/03 05:05:47;;;;;;;13.50;12.10;;;15.40;99.90;;;;;;2087157;28;20111;-69
2023/09/03 05:06:48;;;;;;;14.43;11.50;;;15.40;99.90;;;;;;2074959;28;20393;-69
2023/09/03 05:07:51;;;;;;;13.25;11.95;;;15.40;99.90;;;;;;2075228;28;20412;-69
2023/09/03 05:08:52;;;;;;;13.18;11.77;;;15.40;99.90;;;;;;2078309;28;20053;-70
2023/09/03 05:09:55;;;;;;;13.50;12.20;;;15.40;99.90;;;;;;2065112;28;20507;-69
2023/09/03 05:11:06;;;;;;;13.57;12.18;;;15.40;99.90;;;;;;2071942;28;20029;-70
2023/09/03 05:12:06;;;;;;;13.38;11.98;;;15.50;99.90;;;;;;2079447;28;20024;-69
2023/09/03 05:13:07;;;;;;;12.93;11.50;;;15.40;99.90;;;;;;2085162;28;20079;-70
2023/09/03 05:14:09;;;;;;;12.60;11.40;;;15.50;99.90;;;;;;2086102;28;20579;-69
2023/09/03 05:15:13;;;;;;;13.50;11.60;;;15.50;99.90;;;;;;2085346;28;20144;-69
2023/09/03 05:16:14;;;;;;;12.13;10.82;;;15.60;99.90;;;;;;2089542;28;20501;-70
2023/09/03 05:17:16;;;;;;;12.38;11.18;;;15.60;99.90;;;;;;2079611;28;20017;-69
2023/09/03 05:18:19;;;;;;;12.35;11.05;;;15.60;99.90;;;;;;2083459;28;20093;-69